Portada
METAR-TAF:

METAR-TAF

Aeropuertos :

Aeropuerto Internacional Diori Hamani

Niamey, Níger

latitud: 13-29N, longitud: 002-10E, altitud: 223 m

Observación

El informe se hizo hace 51 minutos, a las 06:00 UTC
Viento 3 kt del norte-noreste
Temperatura 22°C
Humedad 27%
Presión 1011 hPa
Visibilidad 10 km o más
sin nubes por debajo de 1500 m y sin presencia de cumulonimbus.

METAR: DRRN 140600Z 02003KT CAVOK 22/02 Q1011 NOSIG

Hora: 07:51 (06:51 UTC)

Pronóstico

El informe se hizo hace 1 hora y 51 minutos, a las 05:00 UTC
Pronóstico válido del 14 a las 06 UTC al 15 a las 12 UTC
Viento 8 kt del este-noreste
Visibilidad: 8000 m
Temporalmente
del 14 a las 06 UTC al 14 a las 09 UTC
Visibilidad: 4000 m
Polvo extendido
Temporalmente
del 14 a las 17 UTC al 14 a las 20 UTC
Visibilidad: 4000 m
Polvo extendido

TAF: DRRN 140500Z 1406/1512 06008KT 8000 NSC TEMPO 1406/1409 4000 DU TEMPO 1417/1420 4000 DU

Observaciones y pronósticos meteorológicos de más de 4000 aeropuertos (mensajes METAR y TAF).

Los puntos amarillos y rojos representan las estaciones disponibles.

Ponga el ratón en el punto deseado para ver el nombre de la estación.

Haga clic para ver las observaciones y los pronósticos meteorológicos.

Para cambiar el mapa : haga clic en los botones verdes con una cruz de color negro para hacer un zoom, en el botón verde con un guión para alejar o en las flechas verdes para mapas adyacentes.


METAR-TAF: